sensor_id;sensor_type;location;lat;lon;timestamp;temperature;humidity
21214;DHT22;10764;50.850;2.904;2023-07-08T16:44:11;26.50;51.40
21214;DHT22;10764;50.850;2.904;2023-07-08T16:47:15;25.40;57.20
21214;DHT22;10764;50.850;2.904;2023-07-08T16:49:42;25.50;59.20
21214;DHT22;10764;50.850;2.904;2023-07-08T16:52:12;25.70;58.50
21214;DHT22;10764;50.850;2.904;2023-07-08T16:54:41;26.00;58.00
21214;DHT22;10764;50.850;2.904;2023-07-08T16:57:09;26.00;57.50
21214;DHT22;10764;50.850;2.904;2023-07-08T16:59:37;25.90;57.00
21214;DHT22;10764;50.850;2.904;2023-07-08T17:02:15;25.90;56.80
21214;DHT22;10764;50.850;2.904;2023-07-08T17:04:43;25.80;56.80
21214;DHT22;10764;50.850;2.904;2023-07-08T17:07:11;25.80;56.80
21214;DHT22;10764;50.850;2.904;2023-07-08T17:09:39;25.70;56.70
21214;DHT22;10764;50.850;2.904;2023-07-08T17:12:07;25.90;57.50
21214;DHT22;10764;50.850;2.904;2023-07-08T17:14:34;25.80;56.70
21214;DHT22;10764;50.850;2.904;2023-07-08T17:17:02;25.90;56.70
21214;DHT22;10764;50.850;2.904;2023-07-08T17:19:30;25.90;56.60
21214;DHT22;10764;50.850;2.904;2023-07-08T17:21:58;25.90;56.60
21214;DHT22;10764;50.850;2.904;2023-07-08T17:24:24;26.20;56.80
21214;DHT22;10764;50.850;2.904;2023-07-08T17:26:52;26.10;56.70
21214;DHT22;10764;50.850;2.904;2023-07-08T17:29:19;25.80;56.60
21214;DHT22;10764;50.850;2.904;2023-07-08T17:31:46;25.90;56.80
21214;DHT22;10764;50.850;2.904;2023-07-08T17:34:25;25.90;56.90
21214;DHT22;10764;50.850;2.904;2023-07-08T17:36:53;25.90;57.00
21214;DHT22;10764;50.850;2.904;2023-07-08T17:39:21;25.80;57.10
21214;DHT22;10764;50.850;2.904;2023-07-08T17:41:48;25.80;57.20
21214;DHT22;10764;50.850;2.904;2023-07-08T17:44:18;25.80;57.30
21214;DHT22;10764;50.850;2.904;2023-07-08T17:46:46;25.90;57.50
21214;DHT22;10764;50.850;2.904;2023-07-08T17:49:13;25.90;57.50
21214;DHT22;10764;50.850;2.904;2023-07-08T17:51:41;25.80;57.50
21214;DHT22;10764;50.850;2.904;2023-07-08T17:54:14;25.80;57.50
21214;DHT22;10764;50.850;2.904;2023-07-08T17:56:45;26.00;57.70
21214;DHT22;10764;50.850;2.904;2023-07-08T17:59:18;26.00;57.70
21214;DHT22;10764;50.850;2.904;2023-07-08T18:01:46;26.70;58.20
21214;DHT22;10764;50.850;2.904;2023-07-08T18:04:13;25.90;57.70
21214;DHT22;10764;50.850;2.904;2023-07-08T18:06:40;26.00;57.80
21214;DHT22;10764;50.850;2.904;2023-07-08T18:09:07;25.90;57.80
21214;DHT22;10764;50.850;2.904;2023-07-08T18:11:39;25.90;57.80
21214;DHT22;10764;50.850;2.904;2023-07-08T18:14:07;26.10;57.90
21214;DHT22;10764;50.850;2.904;2023-07-08T18:16:34;26.00;57.90
21214;DHT22;10764;50.850;2.904;2023-07-08T18:19:01;26.10;58.00
21214;DHT22;10764;50.850;2.904;2023-07-08T18:21:28;25.90;57.90
21214;DHT22;10764;50.850;2.904;2023-07-08T18:23:55;25.90;58.00
21214;DHT22;10764;50.850;2.904;2023-07-08T18:26:28;25.90;58.00
21214;DHT22;10764;50.850;2.904;2023-07-08T18:28:57;25.80;58.00
21214;DHT22;10764;50.850;2.904;2023-07-08T18:31:30;25.90;58.10
21214;DHT22;10764;50.850;2.904;2023-07-08T18:33:58;25.80;58.00
21214;DHT22;10764;50.850;2.904;2023-07-08T18:36:28;25.90;58.10
21214;DHT22;10764;50.850;2.904;2023-07-08T18:38:56;25.90;58.10
21214;DHT22;10764;50.850;2.904;2023-07-08T18:41:25;25.80;58.20
21214;DHT22;10764;50.850;2.904;2023-07-08T18:43:54;25.80;58.10
21214;DHT22;10764;50.850;2.904;2023-07-08T18:46:22;25.90;58.20
21214;DHT22;10764;50.850;2.904;2023-07-08T18:48:49;25.70;58.10
21214;DHT22;10764;50.850;2.904;2023-07-08T18:51:23;25.70;58.10
21214;DHT22;10764;50.850;2.904;2023-07-08T18:53:51;25.80;58.30
21214;DHT22;10764;50.850;2.904;2023-07-08T18:56:18;25.70;58.30
21214;DHT22;10764;50.850;2.904;2023-07-08T18:58:46;25.70;58.30
21214;DHT22;10764;50.850;2.904;2023-07-08T19:01:15;25.80;58.50
21214;DHT22;10764;50.850;2.904;2023-07-08T19:03:43;25.80;58.50
21214;DHT22;10764;50.850;2.904;2023-07-08T19:06:12;25.60;58.50
21214;DHT22;10764;50.850;2.904;2023-07-08T19:08:39;25.70;58.50
21214;DHT22;10764;50.850;2.904;2023-07-08T19:11:23;25.70;58.60
21214;DHT22;10764;50.850;2.904;2023-07-08T19:13:50;25.60;58.60
21214;DHT22;10764;50.850;2.904;2023-07-08T19:16:18;25.60;58.60
21214;DHT22;10764;50.850;2.904;2023-07-08T19:18:48;25.80;58.80
21214;DHT22;10764;50.850;2.904;2023-07-08T19:21:22;25.80;58.80
21214;DHT22;10764;50.850;2.904;2023-07-08T19:23:51;25.60;58.70
21214;DHT22;10764;50.850;2.904;2023-07-08T19:26:21;25.70;58.70
21214;DHT22;10764;50.850;2.904;2023-07-08T19:28:52;25.70;58.70
21214;DHT22;10764;50.850;2.904;2023-07-08T19:31:25;25.60;58.70
21214;DHT22;10764;50.850;2.904;2023-07-08T19:33:55;25.80;58.80
21214;DHT22;10764;50.850;2.904;2023-07-08T19:36:22;25.60;58.70
21214;DHT22;10764;50.850;2.904;2023-07-08T19:38:49;25.50;58.60
21214;DHT22;10764;50.850;2.904;2023-07-08T19:41:23;25.70;58.70
21214;DHT22;10764;50.850;2.904;2023-07-08T19:43:52;25.70;58.70
21214;DHT22;10764;50.850;2.904;2023-07-08T19:46:19;25.60;58.50
21214;DHT22;10764;50.850;2.904;2023-07-08T19:48:47;25.70;58.50
21214;DHT22;10764;50.850;2.904;2023-07-08T19:51:14;25.40;58.40
21214;DHT22;10764;50.850;2.904;2023-07-08T19:53:41;25.60;58.40
21214;DHT22;10764;50.850;2.904;2023-07-08T19:56:12;25.60;58.40
21214;DHT22;10764;50.850;2.904;2023-07-08T19:58:40;25.60;58.30
21214;DHT22;10764;50.850;2.904;2023-07-08T20:01:07;25.50;59.10
21214;DHT22;10764;50.850;2.904;2023-07-08T20:03:34;25.60;58.50
21214;DHT22;10764;50.850;2.904;2023-07-08T20:08:36;25.30;56.70
21214;DHT22;10764;50.850;2.904;2023-07-08T20:11:03;25.30;55.20
21214;DHT22;10764;50.850;2.904;2023-07-08T20:13:32;25.60;54.10
21214;DHT22;10764;50.850;2.904;2023-07-08T20:16:23;25.00;52.60
21214;DHT22;10764;50.850;2.904;2023-07-08T20:18:49;24.80;52.00
21214;DHT22;10764;50.850;2.904;2023-07-08T20:21:18;24.80;51.80
21214;DHT22;10764;50.850;2.904;2023-07-08T20:23:45;24.60;51.60
21214;DHT22;10764;50.850;2.904;2023-07-08T20:26:39;24.70;51.80
21214;DHT22;10764;50.850;2.904;2023-07-08T20:29:04;24.90;52.20
21214;DHT22;10764;50.850;2.904;2023-07-08T20:31:32;24.40;52.00
21214;DHT22;10764;50.850;2.904;2023-07-08T20:34:00;25.00;52.50
21214;DHT22;10764;50.850;2.904;2023-07-08T20:36:27;25.10;52.60
21214;DHT22;10764;50.850;2.904;2023-07-08T20:38:54;24.90;52.70
21214;DHT22;10764;50.850;2.904;2023-07-08T20:41:21;25.30;52.90
21214;DHT22;10764;50.850;2.904;2023-07-08T20:43:48;25.30;53.20
21214;DHT22;10764;50.850;2.904;2023-07-08T20:46:18;25.20;53.40
21214;DHT22;10764;50.850;2.904;2023-07-08T20:48:46;25.20;53.50
21214;DHT22;10764;50.850;2.904;2023-07-08T20:51:13;25.50;53.50
21214;DHT22;10764;50.850;2.904;2023-07-08T20:53:42;25.60;53.80
21214;DHT22;10764;50.850;2.904;2023-07-08T20:56:26;25.10;53.60
21214;DHT22;10764;50.850;2.904;2023-07-08T20:58:54;25.00;53.70
21214;DHT22;10764;50.850;2.904;2023-07-08T21:01:21;25.40;54.10
21214;DHT22;10764;50.850;2.904;2023-07-08T21:03:49;25.20;54.20
21214;DHT22;10764;50.850;2.904;2023-07-08T21:06:24;25.00;54.30
21214;DHT22;10764;50.850;2.904;2023-07-08T21:08:53;25.00;54.40
21214;DHT22;10764;50.850;2.904;2023-07-08T21:11:20;25.00;54.70
21214;DHT22;10764;50.850;2.904;2023-07-08T21:13:47;24.90;54.70
21214;DHT22;10764;50.850;2.904;2023-07-08T21:16:18;25.30;55.10
21214;DHT22;10764;50.850;2.904;2023-07-08T21:18:47;25.40;55.20
21214;DHT22;10764;50.850;2.904;2023-07-08T21:21:14;25.00;55.10
21214;DHT22;10764;50.850;2.904;2023-07-08T21:23:41;25.20;55.30
21214;DHT22;10764;50.850;2.904;2023-07-08T21:26:21;25.10;55.40
21214;DHT22;10764;50.850;2.904;2023-07-08T21:28:52;25.00;55.60
21214;DHT22;10764;50.850;2.904;2023-07-08T21:31:19;25.20;55.90
21214;DHT22;10764;50.850;2.904;2023-07-08T21:33:46;24.90;55.90
21214;DHT22;10764;50.850;2.904;2023-07-08T21:38:45;24.50;56.00
21214;DHT22;10764;50.850;2.904;2023-07-08T21:41:12;24.90;56.20
21214;DHT22;10764;50.850;2.904;2023-07-08T21:43:39;24.30;56.10
21214;DHT22;10764;50.850;2.904;2023-07-08T21:46:06;25.70;57.00
21214;DHT22;10764;50.850;2.904;2023-07-08T21:48:34;25.00;56.60
21214;DHT22;10764;50.850;2.904;2023-07-08T21:51:02;25.00;56.70
21214;DHT22;10764;50.850;2.904;2023-07-08T21:53:34;25.00;56.80
21214;DHT22;10764;50.850;2.904;2023-07-08T21:56:02;25.00;56.80
21214;DHT22;10764;50.850;2.904;2023-07-08T21:58:30;25.00;56.90
21214;DHT22;10764;50.850;2.904;2023-07-08T22:00:57;24.90;57.10
21214;DHT22;10764;50.850;2.904;2023-07-08T22:03:26;25.10;57.20
21214;DHT22;10764;50.850;2.904;2023-07-08T22:05:56;25.00;57.30
21214;DHT22;10764;50.850;2.904;2023-07-08T22:08:27;25.20;57.50
21214;DHT22;10764;50.850;2.904;2023-07-08T22:10:58;25.00;57.50
21214;DHT22;10764;50.850;2.904;2023-07-08T22:13:33;25.20;57.70
21214;DHT22;10764;50.850;2.904;2023-07-08T22:16:02;25.00;57.60
21214;DHT22;10764;50.850;2.904;2023-07-08T22:18:30;25.10;57.80
21214;DHT22;10764;50.850;2.904;2023-07-08T22:20:58;25.00;57.80
21214;DHT22;10764;50.850;2.904;2023-07-08T22:23:28;25.00;57.80
21214;DHT22;10764;50.850;2.904;2023-07-08T22:25:56;24.70;57.80
21214;DHT22;10764;50.850;2.904;2023-07-08T22:28:24;24.60;57.80
21214;DHT22;10764;50.850;2.904;2023-07-08T22:30:51;25.10;58.10
21214;DHT22;10764;50.850;2.904;2023-07-08T22:33:19;24.60;57.80
21214;DHT22;10764;50.850;2.904;2023-07-08T22:35:51;25.20;58.20
21214;DHT22;10764;50.850;2.904;2023-07-08T22:38:19;25.00;58.10
21214;DHT22;10764;50.850;2.904;2023-07-08T22:40:47;24.80;58.10
21214;DHT22;10764;50.850;2.904;2023-07-08T22:43:24;24.80;58.20
21214;DHT22;10764;50.850;2.904;2023-07-08T22:45:52;24.90;58.40
21214;DHT22;10764;50.850;2.904;2023-07-08T22:48:19;24.80;58.30
21214;DHT22;10764;50.850;2.904;2023-07-08T22:50:47;24.60;58.10
21214;DHT22;10764;50.850;2.904;2023-07-08T22:53:16;25.30;58.40
21214;DHT22;10764;50.850;2.904;2023-07-08T22:55:47;24.70;58.10
21214;DHT22;10764;50.850;2.904;2023-07-08T22:58:23;25.00;58.20
21214;DHT22;10764;50.850;2.904;2023-07-08T23:00:50;24.70;58.10
21214;DHT22;10764;50.850;2.904;2023-07-08T23:03:17;25.00;58.10
21214;DHT22;10764;50.850;2.904;2023-07-08T23:05:45;25.30;58.30
21214;DHT22;10764;50.850;2.904;2023-07-08T23:08:16;24.90;58.00
21214;DHT22;10764;50.850;2.904;2023-07-08T23:10:44;24.80;58.00
21214;DHT22;10764;50.850;2.904;2023-07-08T23:13:34;25.10;58.10
21214;DHT22;10764;50.850;2.904;2023-07-08T23:18:46;25.00;58.10
21214;DHT22;10764;50.850;2.904;2023-07-08T23:21:15;25.00;58.10
21214;DHT22;10764;50.850;2.904;2023-07-08T23:23:43;24.70;57.90
21214;DHT22;10764;50.850;2.904;2023-07-08T23:26:20;24.90;58.00
21214;DHT22;10764;50.850;2.904;2023-07-08T23:28:50;24.70;58.00
21214;DHT22;10764;50.850;2.904;2023-07-08T23:31:17;25.00;58.10
21214;DHT22;10764;50.850;2.904;2023-07-08T23:33:45;24.90;58.10
21214;DHT22;10764;50.850;2.904;2023-07-08T23:36:30;25.00;58.20
21214;DHT22;10764;50.850;2.904;2023-07-08T23:38:59;25.00;58.20
21214;DHT22;10764;50.850;2.904;2023-07-08T23:41:26;25.00;58.30
21214;DHT22;10764;50.850;2.904;2023-07-08T23:43:55;24.70;58.20
21214;DHT22;10764;50.850;2.904;2023-07-08T23:46:23;24.60;58.20
21214;DHT22;10764;50.850;2.904;2023-07-08T23:48:52;24.90;58.70
21214;DHT22;10764;50.850;2.904;2023-07-08T23:51:20;24.90;58.40
21214;DHT22;10764;50.850;2.904;2023-07-08T23:53:47;24.80;58.40
21214;DHT22;10764;50.850;2.904;2023-07-08T23:56:15;24.80;58.40
21214;DHT22;10764;50.850;2.904;2023-07-08T23:58:42;24.80;58.50
